createdAt,value
2023-03-31T00:00:25.479Z,76.82
2023-03-31T00:02:01.074Z,77.37
2023-03-31T00:03:34.315Z,77.49
2023-03-31T00:05:07.416Z,77.86
2023-03-31T00:06:43.166Z,77.56
2023-03-31T00:08:14.717Z,76.80
2023-03-31T00:09:46.410Z,76.77
2023-03-31T00:11:18.174Z,77.22
2023-03-31T00:12:49.766Z,77.04
2023-03-31T00:14:21.780Z,77.31
2023-03-31T00:16:01.586Z,77.05
2023-03-31T00:17:33.543Z,77.62
2023-03-31T00:19:10.237Z,77.34
2023-03-31T00:20:47.765Z,77.63
2023-03-31T00:22:22.163Z,77.55
2023-03-31T00:23:59.299Z,77.61
2023-03-31T00:25:30.907Z,77.86
2023-03-31T00:27:04.713Z,77.53
2023-03-31T00:28:36.282Z,77.36
2023-03-31T00:30:08.720Z,77.46
2023-03-31T00:31:40.597Z,77.90
2023-03-31T00:33:12.240Z,78.37
2023-03-31T00:34:46.137Z,77.89
2023-03-31T00:36:21.385Z,78.03
2023-03-31T00:37:53.961Z,78.75
2023-03-31T00:39:25.644Z,78.63
2023-03-31T00:40:57.327Z,78.78
2023-03-31T00:42:29.522Z,78.84
2023-03-31T00:44:08.475Z,79.33
2023-03-31T00:45:40.425Z,79.17
2023-03-31T00:47:20.134Z,78.75
2023-03-31T00:48:58.662Z,78.35
2023-03-31T00:50:36.005Z,78.25
2023-03-31T00:52:27.709Z,78.25
2023-03-31T00:54:06.647Z,78.37
2023-03-31T00:55:45.102Z,78.74
2023-03-31T00:57:16.922Z,78.72
2023-03-31T00:58:49.834Z,78.94
2023-03-31T01:00:24.017Z,78.42
2023-03-31T01:01:59.321Z,78.18
2023-03-31T01:03:33.508Z,77.68
2023-03-31T01:05:06.223Z,78.11
2023-03-31T01:06:46.604Z,77.78
2023-03-31T01:08:24.519Z,77.57
2023-03-31T01:10:00.171Z,78.63
2023-03-31T01:11:31.846Z,78.50
2023-03-31T01:13:03.701Z,78.14
2023-03-31T01:14:35.838Z,78.01
2023-03-31T01:16:07.492Z,78.29
2023-03-31T01:17:40.554Z,78.57
2023-03-31T01:19:29.192Z,79.39
2023-03-31T01:21:41.167Z,79.41
2023-03-31T01:23:31.639Z,79.32
2023-03-31T01:25:30.651Z,79.15
2023-03-31T01:27:22.155Z,78.35
2023-03-31T01:29:12.433Z,78.03
2023-03-31T01:31:25.354Z,78.44
2023-03-31T01:32:57.029Z,78.23
2023-03-31T01:34:43.476Z,78.60
2023-03-31T01:36:28.726Z,78.51
2023-03-31T01:38:24.426Z,78.28
2023-03-31T01:40:21.753Z,77.71
2023-03-31T01:41:53.234Z,73.99
2023-03-31T01:43:24.738Z,72.47
2023-03-31T01:45:08.117Z,73.87
2023-03-31T01:46:49.295Z,73.93
2023-03-31T01:48:53.224Z,74.15
2023-03-31T01:50:30.624Z,72.13
2023-03-31T01:52:24.164Z,71.02
2023-03-31T01:54:04.970Z,70.87
2023-03-31T01:55:42.759Z,69.63
2023-03-31T01:57:24.538Z,68.28
2023-03-31T01:59:32.727Z,67.82
2023-03-31T02:01:16.928Z,68.44
2023-03-31T02:02:58.215Z,67.89
2023-03-31T02:04:38.594Z,67.83
2023-03-31T02:06:19.193Z,68.02
2023-03-31T02:07:58.705Z,69.00
2023-03-31T02:09:36.843Z,68.79
2023-03-31T02:11:08.812Z,70.16
2023-03-31T02:12:43.517Z,69.83
2023-03-31T02:14:21.933Z,71.03
2023-03-31T02:16:01.490Z,71.44
2023-03-31T02:17:34.001Z,72.60
2023-03-31T02:19:07.238Z,72.12
2023-03-31T02:20:46.175Z,72.99
2023-03-31T02:22:21.789Z,73.76
2023-03-31T02:23:53.630Z,73.74
2023-03-31T02:25:41.239Z,74.04
2023-03-31T02:27:16.753Z,74.64
2023-03-31T02:28:48.401Z,73.89
2023-03-31T02:30:20.135Z,75.38
2023-03-31T02:32:10.517Z,75.45
2023-03-31T02:33:42.302Z,76.15
2023-03-31T02:35:17.675Z,75.87
2023-03-31T02:36:49.938Z,75.72
2023-03-31T02:38:21.585Z,76.32
2023-03-31T02:39:55.829Z,77.57
2023-03-31T02:41:27.671Z,78.59
2023-03-31T02:43:02.045Z,79.00
2023-03-31T02:44:38.672Z,80.35
2023-03-31T02:46:11.729Z,79.45
2023-03-31T02:47:43.578Z,80.48
2023-03-31T02:49:17.462Z,80.15
2023-03-31T02:51:09.744Z,79.54
2023-03-31T02:52:46.615Z,79.29
2023-03-31T02:54:30.307Z,80.17
2023-03-31T02:56:07.229Z,80.91
2023-03-31T02:57:57.274Z,81.62
2023-03-31T02:59:29.450Z,82.28
2023-03-31T03:01:16.289Z,81.73
2023-03-31T03:03:03.232Z,81.76
2023-03-31T03:04:34.793Z,82.56
2023-03-31T03:06:18.684Z,81.78
2023-03-31T03:08:06.334Z,82.16
2023-03-31T03:09:45.476Z,82.16
2023-03-31T03:11:22.587Z,82.36
2023-03-31T03:13:21.111Z,82.75
2023-03-31T03:15:13.788Z,82.15
2023-03-31T03:16:53.014Z,82.65
2023-03-31T03:18:24.902Z,83.35
2023-03-31T03:20:00.677Z,83.07
2023-03-31T03:21:32.574Z,83.27
2023-03-31T03:23:04.252Z,82.44
2023-03-31T03:24:35.901Z,82.55
2023-03-31T03:26:09.077Z,83.29
2023-03-31T03:27:40.884Z,83.68
2023-03-31T03:29:15.734Z,83.80
2023-03-31T03:30:47.397Z,83.68
2023-03-31T03:32:19.040Z,84.39
2023-03-31T03:33:51.035Z,84.11
2023-03-31T03:35:22.744Z,83.79
2023-03-31T03:36:54.359Z,84.50
2023-03-31T03:38:25.978Z,84.32
2023-03-31T03:39:57.916Z,84.70
2023-03-31T03:41:29.749Z,85.29
2023-03-31T03:43:01.320Z,84.38
2023-03-31T03:44:32.953Z,84.74
2023-03-31T03:46:05.675Z,85.08
2023-03-31T03:47:37.683Z,85.43
2023-03-31T03:49:09.284Z,85.32
2023-03-31T03:50:41.259Z,85.92
2023-03-31T03:52:12.881Z,86.10
2023-03-31T03:53:44.506Z,86.46
2023-03-31T03:55:17.788Z,86.38
2023-03-31T03:56:49.538Z,85.99
2023-03-31T03:58:21.420Z,86.25
2023-03-31T03:59:52.961Z,86.63
2023-03-31T04:01:24.661Z,86.73
2023-03-31T04:02:56.384Z,86.90
2023-03-31T04:04:27.923Z,86.93
2023-03-31T04:05:59.451Z,87.17
2023-03-31T04:07:31.036Z,87.55
2023-03-31T04:09:03.739Z,86.92
2023-03-31T04:10:35.862Z,87.44
2023-03-31T04:12:07.441Z,87.24
2023-03-31T04:13:39.056Z,86.89
2023-03-31T04:15:11.079Z,86.74
2023-03-31T04:16:42.924Z,86.51
2023-03-31T04:18:23.599Z,86.69
2023-03-31T04:19:55.190Z,86.75
2023-03-31T04:21:26.784Z,85.94
2023-03-31T04:22:58.331Z,86.36
2023-03-31T04:24:32.757Z,86.43
2023-03-31T04:26:08.790Z,86.67
2023-03-31T04:28:00.688Z,86.44
2023-03-31T04:29:33.476Z,86.30
2023-03-31T04:31:09.376Z,85.70
2023-03-31T04:32:40.933Z,86.01
2023-03-31T04:34:15.226Z,85.71
2023-03-31T04:35:50.344Z,86.30
2023-03-31T04:37:22.631Z,86.47
2023-03-31T04:38:54.890Z,86.38
2023-03-31T04:40:26.796Z,85.30
2023-03-31T04:42:00.624Z,85.68
2023-03-31T04:43:32.234Z,85.64
2023-03-31T04:45:04.188Z,85.46
2023-03-31T04:46:36.151Z,85.49
2023-03-31T04:48:08.182Z,85.66
2023-03-31T04:49:39.847Z,85.40
2023-03-31T04:51:15.312Z,84.90
2023-03-31T04:52:46.874Z,84.59
2023-03-31T04:54:18.666Z,85.25
2023-03-31T04:55:50.726Z,85.14
2023-03-31T04:57:22.557Z,85.58
2023-03-31T04:58:54.387Z,85.80
2023-03-31T05:00:26.624Z,86.25
2023-03-31T05:01:58.359Z,86.77
2023-03-31T05:03:29.963Z,86.56
2023-03-31T05:05:01.605Z,86.94
2023-03-31T05:06:33.598Z,86.79
2023-03-31T05:08:05.416Z,87.27
2023-03-31T05:09:36.932Z,86.98
2023-03-31T05:11:08.486Z,86.93
2023-03-31T05:12:40.299Z,87.66
2023-03-31T05:14:14.008Z,87.12
2023-03-31T05:15:48.002Z,87.67
2023-03-31T05:17:19.694Z,87.78
2023-03-31T05:18:51.334Z,87.69
2023-03-31T05:20:22.868Z,88.09
2023-03-31T05:21:54.443Z,88.65
2023-03-31T05:23:26.267Z,87.70
2023-03-31T05:24:57.885Z,88.09
2023-03-31T05:26:29.463Z,87.93
2023-03-31T05:28:01.556Z,87.86
2023-03-31T05:29:33.188Z,88.08
2023-03-31T05:31:06.071Z,88.52
2023-03-31T05:32:37.763Z,87.99
2023-03-31T05:34:09.412Z,88.72
2023-03-31T05:35:41.126Z,89.42
2023-03-31T05:37:12.769Z,89.48
2023-03-31T05:38:44.691Z,89.27
2023-03-31T05:40:16.617Z,89.58
2023-03-31T05:41:48.347Z,89.41
2023-03-31T05:43:19.963Z,88.23
2023-03-31T05:44:51.540Z,88.26
2023-03-31T05:46:23.261Z,88.42
2023-03-31T05:47:54.958Z,89.25
2023-03-31T05:49:26.531Z,89.29
2023-03-31T05:50:59.436Z,89.36
2023-03-31T05:52:32.884Z,89.64
2023-03-31T05:54:04.447Z,90.03
2023-03-31T05:55:36.862Z,90.30
2023-03-31T05:57:09.476Z,89.55
2023-03-31T05:58:41.138Z,89.80
2023-03-31T06:00:13.391Z,89.03
2023-03-31T06:01:45.297Z,87.80
2023-03-31T06:03:17.022Z,88.07
2023-03-31T06:04:48.629Z,88.38
2023-03-31T06:06:21.329Z,88.80
2023-03-31T06:07:53.735Z,89.22
2023-03-31T06:09:26.192Z,89.63
2023-03-31T06:10:58.213Z,89.56
2023-03-31T06:12:29.838Z,89.35
2023-03-31T06:14:01.457Z,90.17
2023-03-31T06:15:33.173Z,89.83
2023-03-31T06:17:04.841Z,89.28
2023-03-31T06:18:36.785Z,88.70
2023-03-31T06:20:20.447Z,88.06
2023-03-31T06:21:58.430Z,88.91
2023-03-31T06:23:30.408Z,88.83
2023-03-31T06:25:02.114Z,89.35
2023-03-31T06:26:33.757Z,89.63
2023-03-31T06:28:07.475Z,89.81
2023-03-31T06:29:39.068Z,89.71
2023-03-31T06:31:16.464Z,90.16
2023-03-31T06:32:48.123Z,90.18
2023-03-31T06:34:21.350Z,89.61
2023-03-31T06:35:56.484Z,89.56
2023-03-31T06:37:28.169Z,89.86
2023-03-31T06:38:59.769Z,89.58
2023-03-31T06:40:31.703Z,90.02
2023-03-31T06:42:03.770Z,89.52
2023-03-31T06:43:37.796Z,89.97
2023-03-31T06:45:09.922Z,90.23
2023-03-31T06:46:41.817Z,89.92
2023-03-31T06:48:14.032Z,90.05
2023-03-31T06:49:46.256Z,90.03
2023-03-31T06:51:18.012Z,88.99
2023-03-31T06:52:52.754Z,88.64
2023-03-31T06:54:24.582Z,89.29
2023-03-31T06:55:56.267Z,89.59
2023-03-31T06:57:29.056Z,89.18
2023-03-31T06:59:01.095Z,89.52
2023-03-31T07:00:33.851Z,89.46
2023-03-31T07:02:05.450Z,89.50
2023-03-31T07:03:37.910Z,89.07
2023-03-31T07:05:09.639Z,88.07
2023-03-31T07:06:41.488Z,88.13
2023-03-31T07:08:13.125Z,88.62
2023-03-31T07:09:44.765Z,88.00
2023-03-31T07:11:16.723Z,86.67
2023-03-31T07:12:48.468Z,87.22
2023-03-31T07:14:20.209Z,86.92
2023-03-31T07:15:52.050Z,87.03
2023-03-31T07:17:25.494Z,86.58
2023-03-31T07:18:58.059Z,86.08
2023-03-31T07:20:31.017Z,85.18
2023-03-31T07:22:02.613Z,86.35
2023-03-31T07:23:35.671Z,86.79
2023-03-31T07:25:09.182Z,86.48
2023-03-31T07:26:40.837Z,85.57
2023-03-31T07:28:12.408Z,85.73
2023-03-31T07:29:44.107Z,85.51
2023-03-31T07:31:16.501Z,85.13
2023-03-31T07:32:52.078Z,83.63
2023-03-31T07:34:23.744Z,83.51
2023-03-31T07:36:08.261Z,83.25
2023-03-31T07:37:46.293Z,83.29
2023-03-31T07:39:17.860Z,83.81
2023-03-31T07:41:01.934Z,82.72
2023-03-31T07:42:39.768Z,83.00
2023-03-31T07:44:11.373Z,81.91
2023-03-31T07:45:43.097Z,80.68
2023-03-31T07:47:14.766Z,76.06
2023-03-31T07:48:48.164Z,66.91
2023-03-31T07:50:20.524Z,63.88
2023-03-31T07:51:54.079Z,66.97
2023-03-31T07:53:25.826Z,69.80
2023-03-31T07:54:57.488Z,70.86
2023-03-31T07:56:31.672Z,70.00
2023-03-31T07:58:03.298Z,71.63
2023-03-31T07:59:34.882Z,63.76
2023-03-31T08:01:08.068Z,49.87
2023-03-31T08:02:43.065Z,48.54
2023-03-31T08:04:14.929Z,39.72
2023-03-31T08:05:46.565Z,34.91
2023-03-31T08:07:18.192Z,32.21
2023-03-31T08:08:50.421Z,28.82
2023-03-31T08:10:26.044Z,30.04
2023-03-31T08:11:57.618Z,29.12
2023-03-31T08:13:29.307Z,27.54
2023-03-31T08:15:01.515Z,28.08
2023-03-31T08:16:33.191Z,27.31
2023-03-31T08:18:05.577Z,23.87
2023-03-31T08:19:37.397Z,25.83
2023-03-31T08:21:12.194Z,24.51
2023-03-31T08:22:43.833Z,24.33
2023-03-31T08:24:15.420Z,23.08
2023-03-31T08:25:47.380Z,22.62
2023-03-31T08:27:19.027Z,22.42
2023-03-31T08:28:50.749Z,22.25
2023-03-31T08:30:23.384Z,22.86
2023-03-31T08:31:55.562Z,25.10
2023-03-31T08:33:27.222Z,24.31
2023-03-31T08:34:59.216Z,21.85
2023-03-31T08:36:31.159Z,22.73
2023-03-31T08:38:03.135Z,22.59
2023-03-31T08:39:37.134Z,21.00
2023-03-31T08:41:19.507Z,21.03
2023-03-31T08:42:56.057Z,21.07
2023-03-31T08:44:41.108Z,20.31
2023-03-31T08:46:15.998Z,20.67
2023-03-31T08:47:51.734Z,19.48
2023-03-31T08:49:26.138Z,20.72
2023-03-31T08:51:08.471Z,20.01
2023-03-31T08:52:45.860Z,19.68
2023-03-31T08:54:24.999Z,20.09
2023-03-31T08:55:58.910Z,20.71
2023-03-31T08:57:53.020Z,24.09
2023-03-31T08:59:29.833Z,20.72
2023-03-31T09:01:23.122Z,17.06
2023-03-31T09:03:07.268Z,18.50
2023-03-31T09:05:00.735Z,17.24
2023-03-31T09:06:43.439Z,19.60
2023-03-31T09:08:35.740Z,19.49
2023-03-31T09:10:13.613Z,25.49
2023-03-31T09:11:53.856Z,20.13
2023-03-31T09:13:40.657Z,21.41
2023-03-31T09:15:20.173Z,22.04
2023-03-31T09:17:06.687Z,19.15
2023-03-31T09:18:40.590Z,20.00
2023-03-31T09:20:32.323Z,27.50
2023-03-31T09:22:09.868Z,22.59
2023-03-31T09:24:16.884Z,19.93
2023-03-31T09:25:48.896Z,19.43
2023-03-31T09:27:21.238Z,21.88
2023-03-31T09:28:56.414Z,20.80
2023-03-31T09:30:29.633Z,20.78
2023-03-31T09:32:09.920Z,18.08
2023-03-31T09:33:45.924Z,24.92
2023-03-31T09:35:21.477Z,25.91
2023-03-31T09:36:53.063Z,22.47
2023-03-31T09:38:29.431Z,19.19
2023-03-31T09:40:07.861Z,17.80
2023-03-31T09:41:43.498Z,18.43
2023-03-31T09:43:14.929Z,18.99
2023-03-31T09:44:50.107Z,20.75
2023-03-31T09:46:35.013Z,20.93
2023-03-31T09:48:13.303Z,19.67
2023-03-31T09:49:53.725Z,20.48
2023-03-31T09:51:30.616Z,22.22
2023-03-31T09:53:05.256Z,21.78
2023-03-31T09:54:37.089Z,24.61
2023-03-31T09:56:11.292Z,28.35
2023-03-31T09:57:43.145Z,34.04
2023-03-31T09:59:32.901Z,29.14
2023-03-31T10:01:09.073Z,26.87
2023-03-31T10:02:49.837Z,19.67
2023-03-31T10:04:28.215Z,23.67
2023-03-31T10:06:00.017Z,21.76
2023-03-31T10:07:32.819Z,21.87
2023-03-31T10:09:05.602Z,23.82
2023-03-31T10:10:38.135Z,21.96
2023-03-31T10:12:17.602Z,22.47
2023-03-31T10:14:03.027Z,20.17
2023-03-31T10:15:40.350Z,19.19
2023-03-31T10:17:18.593Z,18.76
2023-03-31T10:18:50.508Z,17.96
2023-03-31T10:20:38.690Z,20.43
2023-03-31T10:22:26.470Z,19.56
2023-03-31T10:24:01.869Z,17.73
2023-03-31T10:25:34.232Z,16.41
2023-03-31T10:27:13.988Z,16.51
2023-03-31T10:28:49.503Z,16.48
2023-03-31T10:30:22.360Z,16.63
2023-03-31T10:31:54.368Z,16.33
2023-03-31T10:33:28.470Z,18.10
2023-03-31T10:35:28.456Z,18.25
2023-03-31T10:37:00.152Z,19.03
2023-03-31T10:38:40.682Z,18.58
2023-03-31T10:40:18.069Z,20.42
2023-03-31T10:41:51.584Z,21.82
2023-03-31T10:43:29.171Z,25.21
2023-03-31T10:45:36.458Z,28.47
2023-03-31T10:47:18.211Z,30.55
2023-03-31T10:48:51.435Z,32.24
2023-03-31T10:50:29.366Z,33.28
2023-03-31T10:52:01.414Z,31.85
2023-03-31T10:53:48.286Z,32.15
2023-03-31T10:55:30.458Z,32.90
2023-03-31T10:57:05.519Z,32.95
2023-03-31T10:58:58.375Z,32.42
2023-03-31T11:00:55.153Z,31.48
2023-03-31T11:02:35.868Z,32.98
2023-03-31T11:04:26.121Z,31.48
2023-03-31T11:06:09.671Z,33.04
2023-03-31T11:08:04.522Z,34.50
2023-03-31T11:10:03.386Z,33.90
2023-03-31T11:12:02.891Z,40.06
2023-03-31T11:13:34.609Z,39.71
2023-03-31T11:15:20.770Z,43.67
2023-03-31T11:17:08.526Z,44.67
2023-03-31T11:18:57.780Z,47.08
2023-03-31T11:20:32.220Z,62.12
2023-03-31T11:22:26.697Z,70.43
2023-03-31T11:24:16.196Z,69.66
2023-03-31T11:26:11.472Z,68.17
2023-03-31T11:28:20.950Z,71.20
2023-03-31T11:29:55.703Z,68.63
2023-03-31T11:31:47.739Z,67.98
2023-03-31T11:33:46.862Z,68.10
2023-03-31T11:35:37.278Z,67.04
2023-03-31T11:37:21.519Z,67.70
2023-03-31T11:39:10.282Z,68.55
2023-03-31T11:40:56.811Z,69.44
2023-03-31T11:42:42.558Z,68.21
2023-03-31T11:44:18.636Z,68.21
2023-03-31T11:45:55.872Z,69.72
2023-03-31T11:47:33.726Z,68.88
2023-03-31T11:49:19.291Z,67.92
2023-03-31T11:50:51.520Z,67.90
2023-03-31T11:52:41.874Z,68.25
2023-03-31T11:54:23.993Z,67.80
2023-03-31T11:55:57.954Z,65.11
2023-03-31T11:57:53.106Z,63.47
2023-03-31T11:59:31.894Z,64.92
2023-03-31T12:01:23.985Z,66.15
2023-03-31T12:03:11.152Z,64.56
2023-03-31T12:04:46.702Z,64.61
2023-03-31T12:06:23.324Z,65.11
2023-03-31T12:08:11.423Z,63.55
2023-03-31T12:09:48.769Z,64.92
2023-03-31T12:11:36.072Z,63.70
2023-03-31T12:13:29.218Z,66.06
2023-03-31T12:15:27.494Z,64.32
2023-03-31T12:17:12.284Z,64.41
2023-03-31T12:18:57.296Z,64.46
2023-03-31T12:20:31.704Z,63.88
2023-03-31T12:22:22.357Z,62.68
2023-03-31T12:23:54.333Z,60.58
2023-03-31T12:25:36.947Z,58.59
2023-03-31T12:27:18.539Z,57.98
2023-03-31T12:28:59.687Z,59.18
2023-03-31T12:30:39.541Z,59.31
2023-03-31T12:32:21.330Z,57.58
2023-03-31T12:34:07.387Z,58.54
2023-03-31T12:36:07.553Z,58.42
2023-03-31T12:37:51.768Z,59.04
2023-03-31T12:39:51.647Z,58.07
2023-03-31T12:41:43.213Z,58.62
2023-03-31T12:43:56.287Z,60.69
2023-03-31T12:45:35.347Z,58.93
2023-03-31T12:47:19.098Z,58.68
2023-03-31T12:48:56.663Z,59.10
2023-03-31T12:50:33.248Z,59.16
2023-03-31T12:52:12.435Z,58.60
2023-03-31T12:54:16.034Z,57.89
2023-03-31T12:55:57.839Z,59.68
2023-03-31T12:57:29.657Z,59.85
2023-03-31T12:59:19.077Z,58.52
2023-03-31T13:01:08.077Z,58.35
2023-03-31T13:02:41.243Z,57.97
2023-03-31T13:04:22.136Z,59.06
2023-03-31T13:05:53.798Z,58.10
2023-03-31T13:07:28.302Z,60.12
2023-03-31T13:09:08.481Z,59.58
2023-03-31T13:10:58.155Z,58.94
2023-03-31T13:12:33.132Z,58.05
2023-03-31T13:14:14.132Z,58.19
2023-03-31T13:15:54.574Z,58.14
2023-03-31T13:17:35.710Z,58.56
2023-03-31T13:19:07.781Z,59.30
2023-03-31T13:20:40.900Z,58.66
2023-03-31T13:22:31.680Z,58.47
2023-03-31T13:24:07.258Z,59.24
2023-03-31T13:25:43.572Z,59.80
2023-03-31T13:27:35.626Z,59.17
2023-03-31T13:29:16.489Z,58.27
2023-03-31T13:31:14.313Z,58.70
2023-03-31T13:33:05.040Z,58.97
2023-03-31T13:34:45.040Z,61.32
2023-03-31T13:36:41.156Z,62.40
2023-03-31T13:38:22.942Z,63.39
2023-03-31T13:40:24.875Z,63.24
2023-03-31T13:42:14.748Z,62.75
2023-03-31T13:44:01.359Z,63.24
2023-03-31T13:45:52.888Z,65.70
2023-03-31T13:47:39.925Z,67.68
2023-03-31T13:49:40.528Z,70.37
2023-03-31T13:51:28.724Z,72.12
2023-03-31T13:53:37.968Z,73.15
2023-03-31T13:55:24.362Z,74.09
2023-03-31T13:57:27.348Z,73.17
2023-03-31T13:59:11.901Z,73.06
2023-03-31T14:01:09.952Z,72.68
2023-03-31T14:03:19.161Z,71.58
2023-03-31T14:05:02.751Z,71.39
2023-03-31T14:06:38.382Z,70.86
2023-03-31T14:08:14.859Z,70.51
2023-03-31T14:09:50.006Z,70.48
2023-03-31T14:11:26.395Z,70.64
2023-03-31T14:13:18.239Z,69.09
2023-03-31T14:14:54.569Z,69.93
2023-03-31T14:16:27.100Z,70.20
2023-03-31T14:17:58.749Z,70.51
2023-03-31T14:20:24.220Z,70.83
2023-03-31T14:21:58.799Z,71.88
2023-03-31T14:23:48.206Z,71.20
2023-03-31T14:25:31.732Z,72.22
2023-03-31T14:27:21.909Z,72.33
2023-03-31T14:29:03.884Z,72.37
2023-03-31T14:30:47.608Z,73.70
2023-03-31T14:32:32.446Z,72.41
2023-03-31T14:34:26.273Z,72.89
2023-03-31T14:36:02.663Z,72.71
2023-03-31T14:37:34.370Z,71.07
2023-03-31T14:39:11.670Z,70.35
2023-03-31T14:40:48.506Z,69.64
2023-03-31T14:42:28.835Z,70.00
2023-03-31T14:44:02.879Z,70.11
2023-03-31T14:45:34.578Z,70.36
2023-03-31T14:47:06.670Z,69.86
2023-03-31T14:48:45.980Z,69.46
2023-03-31T14:50:18.896Z,68.37
2023-03-31T14:51:53.099Z,68.83
2023-03-31T14:53:26.461Z,67.82
2023-03-31T14:54:59.442Z,67.53
2023-03-31T14:56:39.180Z,69.46
2023-03-31T14:58:15.001Z,67.56
2023-03-31T14:59:47.906Z,67.60
2023-03-31T15:01:26.224Z,67.00
2023-03-31T15:03:01.020Z,67.10
2023-03-31T15:04:44.789Z,66.81
2023-03-31T15:06:16.782Z,66.89
2023-03-31T15:07:48.738Z,67.03
2023-03-31T15:09:29.871Z,67.39
2023-03-31T15:12:43.457Z,68.12
2023-03-31T15:14:15.341Z,68.58
2023-03-31T15:15:47.006Z,68.53
2023-03-31T15:17:24.805Z,67.69
2023-03-31T15:18:57.995Z,68.16
2023-03-31T15:20:31.847Z,68.68
2023-03-31T15:22:16.414Z,69.45
2023-03-31T15:23:53.181Z,68.23
2023-03-31T15:25:36.844Z,69.35
2023-03-31T15:27:33.983Z,69.75
2023-03-31T15:29:16.464Z,68.48
2023-03-31T15:30:54.371Z,69.50
2023-03-31T15:32:37.867Z,69.85
2023-03-31T15:34:28.060Z,69.14
2023-03-31T15:36:00.443Z,68.17
2023-03-31T15:37:43.565Z,68.33
2023-03-31T15:39:15.316Z,69.32
2023-03-31T15:40:54.542Z,68.67
2023-03-31T15:42:28.000Z,67.89
2023-03-31T15:44:30.798Z,67.55
2023-03-31T15:46:02.593Z,67.86
2023-03-31T15:47:38.669Z,68.13
2023-03-31T15:49:21.747Z,68.85
2023-03-31T15:51:01.020Z,68.37
2023-03-31T15:52:38.790Z,67.62
2023-03-31T15:54:43.072Z,67.64
2023-03-31T15:56:33.565Z,67.70
2023-03-31T15:58:17.436Z,67.14
2023-03-31T15:59:55.925Z,68.17
2023-03-31T16:01:32.882Z,67.81
2023-03-31T16:03:14.691Z,68.31
2023-03-31T16:04:53.628Z,67.33
2023-03-31T16:06:52.640Z,67.92
2023-03-31T16:08:42.998Z,67.09
2023-03-31T16:10:21.614Z,66.64
2023-03-31T16:12:03.976Z,67.43
2023-03-31T16:13:40.025Z,67.24
2023-03-31T16:15:18.384Z,67.33
2023-03-31T16:16:54.679Z,68.21
2023-03-31T16:18:36.256Z,67.63
2023-03-31T16:20:22.629Z,68.38
2023-03-31T16:21:59.394Z,67.76
2023-03-31T16:23:38.692Z,67.70
2023-03-31T16:25:13.392Z,67.95
2023-03-31T16:26:45.129Z,68.42
2023-03-31T16:28:20.636Z,69.12
2023-03-31T16:30:06.475Z,69.47
2023-03-31T16:31:40.889Z,70.44
2023-03-31T16:33:18.732Z,70.69
2023-03-31T16:34:58.008Z,73.67
2023-03-31T16:36:29.995Z,75.48
2023-03-31T16:38:04.186Z,74.77
2023-03-31T16:39:35.712Z,75.83
2023-03-31T16:41:07.320Z,76.17
2023-03-31T16:42:39.045Z,77.33
2023-03-31T16:45:50.939Z,76.75
2023-03-31T16:47:34.551Z,75.62
2023-03-31T16:49:06.562Z,74.29
2023-03-31T16:50:38.461Z,74.98
2023-03-31T16:52:10.149Z,75.40
2023-03-31T16:53:41.847Z,75.47
2023-03-31T16:55:13.689Z,75.33
2023-03-31T16:56:45.761Z,75.00
2023-03-31T16:58:18.018Z,75.25
2023-03-31T16:59:49.718Z,76.64
2023-03-31T17:01:21.510Z,75.65
2023-03-31T17:02:53.264Z,75.74
2023-03-31T17:04:25.398Z,75.08
2023-03-31T17:05:59.281Z,75.49
2023-03-31T17:07:31.233Z,75.49
2023-03-31T17:09:03.545Z,75.56
2023-03-31T17:10:35.732Z,75.74
2023-03-31T17:12:07.395Z,76.26
2023-03-31T17:13:39.960Z,77.90
2023-03-31T17:15:12.666Z,76.95
2023-03-31T17:16:48.539Z,77.51
2023-03-31T17:18:20.798Z,77.14
2023-03-31T17:19:53.079Z,77.06
2023-03-31T17:21:26.333Z,77.56
2023-03-31T17:22:58.588Z,77.06
2023-03-31T17:24:30.334Z,77.15
2023-03-31T17:26:04.198Z,77.39
2023-03-31T17:27:36.489Z,77.00
2023-03-31T17:29:08.166Z,77.60
2023-03-31T17:30:40.188Z,76.63
2023-03-31T17:32:13.679Z,77.34
2023-03-31T17:33:46.258Z,77.22
2023-03-31T17:35:21.497Z,77.67
2023-03-31T17:36:55.418Z,77.22
2023-03-31T17:38:27.493Z,77.71
2023-03-31T17:39:59.390Z,78.99
2023-03-31T17:41:31.610Z,79.49
2023-03-31T17:43:03.491Z,79.07
2023-03-31T17:44:35.518Z,79.78
2023-03-31T17:46:12.934Z,80.69
2023-03-31T17:47:46.322Z,81.30
2023-03-31T17:49:18.143Z,81.10
2023-03-31T17:50:49.700Z,83.12
2023-03-31T17:52:21.396Z,83.46
2023-03-31T17:53:53.200Z,84.06
2023-03-31T17:55:24.862Z,83.45
2023-03-31T17:56:56.479Z,82.76
2023-03-31T17:58:28.272Z,83.83
2023-03-31T17:59:59.889Z,84.17
2023-03-31T18:01:31.743Z,84.44
2023-03-31T18:03:03.460Z,83.88
2023-03-31T18:04:35.136Z,83.76
2023-03-31T18:06:11.761Z,83.80
2023-03-31T18:07:43.483Z,83.13
2023-03-31T18:09:15.185Z,83.43
2023-03-31T18:10:46.847Z,83.67
2023-03-31T18:12:18.852Z,83.51
2023-03-31T18:13:51.158Z,84.13
2023-03-31T18:15:22.781Z,84.06
2023-03-31T18:16:54.479Z,83.38
2023-03-31T18:18:28.998Z,83.12
2023-03-31T18:20:00.702Z,82.81
2023-03-31T18:21:32.297Z,82.90
2023-03-31T18:23:04.652Z,81.70
2023-03-31T18:24:38.385Z,81.95
2023-03-31T18:26:12.859Z,82.05
2023-03-31T18:27:44.589Z,82.42
2023-03-31T18:29:16.470Z,82.58
2023-03-31T18:30:48.235Z,82.53
2023-03-31T18:32:20.206Z,82.90
2023-03-31T18:33:52.383Z,82.19
2023-03-31T18:35:24.199Z,81.91
2023-03-31T18:36:55.969Z,81.76
2023-03-31T18:38:28.099Z,81.48
2023-03-31T18:39:59.800Z,82.06
2023-03-31T18:41:31.380Z,81.63
2023-03-31T18:43:03.128Z,81.35
2023-03-31T18:44:36.007Z,81.45
2023-03-31T18:46:07.752Z,81.99
2023-03-31T18:47:40.038Z,81.64
2023-03-31T18:49:12.082Z,81.29
2023-03-31T18:50:43.973Z,81.52
2023-03-31T18:52:16.341Z,81.95
2023-03-31T18:53:47.924Z,81.45
2023-03-31T18:55:20.066Z,81.30
2023-03-31T18:56:51.729Z,80.91
2023-03-31T18:58:23.950Z,81.71
2023-03-31T18:59:55.736Z,81.27
2023-03-31T19:01:28.639Z,81.23
2023-03-31T19:03:00.257Z,80.82
2023-03-31T19:04:32.713Z,80.61
2023-03-31T19:06:12.323Z,80.36
2023-03-31T19:07:43.978Z,81.20
2023-03-31T19:09:15.602Z,80.91
2023-03-31T19:10:47.202Z,80.85
2023-03-31T19:12:18.923Z,80.69
2023-03-31T19:13:50.533Z,80.29
2023-03-31T19:15:22.613Z,79.95
2023-03-31T19:16:54.352Z,79.92
2023-03-31T19:18:32.905Z,79.60
2023-03-31T19:20:16.294Z,79.78
2023-03-31T19:21:48.566Z,79.35
2023-03-31T19:23:20.439Z,79.49
2023-03-31T19:24:52.313Z,79.54
2023-03-31T19:26:24.014Z,78.74
2023-03-31T19:27:55.841Z,78.69
2023-03-31T19:29:30.389Z,78.74
2023-03-31T19:31:04.482Z,78.71
2023-03-31T19:32:36.716Z,78.84
2023-03-31T19:34:11.772Z,79.36
2023-03-31T19:35:45.536Z,79.67
2023-03-31T19:37:17.391Z,78.76
2023-03-31T19:38:49.091Z,78.83
2023-03-31T19:40:20.959Z,79.14
2023-03-31T19:41:52.550Z,79.24
2023-03-31T19:43:25.219Z,79.51
2023-03-31T19:44:56.956Z,79.74
2023-03-31T19:46:28.866Z,79.35
2023-03-31T19:48:00.638Z,79.61
2023-03-31T19:49:32.256Z,78.93
2023-03-31T19:51:08.672Z,79.25
2023-03-31T19:52:40.795Z,79.20
2023-03-31T19:54:13.088Z,79.28
2023-03-31T19:55:44.732Z,78.87
2023-03-31T19:57:16.692Z,79.74
2023-03-31T19:58:50.162Z,80.15
2023-03-31T20:00:21.854Z,79.71
2023-03-31T20:01:53.595Z,79.36
2023-03-31T20:03:26.384Z,79.95
2023-03-31T20:04:58.233Z,79.75
2023-03-31T20:06:30.868Z,79.26
2023-03-31T20:08:02.602Z,78.83
2023-03-31T20:09:34.403Z,78.27
2023-03-31T20:11:08.192Z,78.51
2023-03-31T20:12:40.155Z,77.58
2023-03-31T20:14:12.292Z,77.37
2023-03-31T20:15:43.966Z,77.18
2023-03-31T20:17:16.802Z,77.29
2023-03-31T20:18:54.012Z,77.56
2023-03-31T20:20:25.830Z,77.85
2023-03-31T20:21:57.967Z,76.97
2023-03-31T20:23:30.467Z,78.02
2023-03-31T20:25:02.360Z,77.81
2023-03-31T20:26:34.671Z,78.21
2023-03-31T20:28:06.412Z,78.62
2023-03-31T20:29:38.143Z,77.51
2023-03-31T20:31:12.540Z,78.62
2023-03-31T20:32:44.314Z,78.49
2023-03-31T20:34:17.801Z,77.98
2023-03-31T20:35:59.129Z,78.14
2023-03-31T20:37:30.796Z,79.12
2023-03-31T20:39:04.413Z,78.70
2023-03-31T20:40:36.646Z,78.50
2023-03-31T20:42:08.231Z,79.20
2023-03-31T20:43:40.225Z,79.73
2023-03-31T20:45:13.001Z,79.42
2023-03-31T20:46:45.003Z,79.69
2023-03-31T20:48:17.753Z,80.59
2023-03-31T20:49:50.344Z,80.48
2023-03-31T20:51:27.598Z,80.29
2023-03-31T20:52:59.377Z,80.55